createdAt,value
2018-05-06T00:04:00.753Z,2.30
2018-05-06T00:08:03.394Z,1.70
2018-05-06T00:12:06.039Z,1.90
2018-05-06T00:16:09.507Z,1.87
2018-05-06T00:20:12.196Z,1.90
2018-05-06T00:24:14.849Z,2.40
2018-05-06T00:28:17.493Z,1.90
2018-05-06T00:32:20.947Z,1.93
2018-05-06T00:36:23.643Z,2.00
2018-05-06T00:40:26.284Z,2.10
2018-05-06T00:44:28.933Z,2.23
2018-05-06T00:48:31.577Z,2.57
2018-05-06T00:52:34.952Z,2.37
2018-05-06T00:56:37.606Z,2.50
2018-05-06T01:00:40.256Z,2.70
2018-05-06T01:04:43.672Z,2.80
2018-05-06T01:08:47.134Z,2.60
2018-05-06T01:12:49.740Z,3.17
2018-05-06T01:16:52.375Z,2.97
2018-05-06T01:20:55.017Z,2.40
2018-05-06T01:24:59.379Z,3.13
2018-05-06T01:29:02.840Z,2.83
2018-05-06T01:33:05.459Z,2.83
2018-05-06T01:37:08.859Z,2.60
2018-05-06T01:41:11.498Z,2.83
2018-05-06T01:45:14.128Z,2.50
2018-05-06T01:49:16.820Z,3.00
2018-05-06T01:53:19.423Z,2.97
2018-05-06T01:57:22.839Z,3.00
2018-05-06T02:01:26.305Z,2.70
2018-05-06T02:05:28.944Z,2.97
2018-05-06T02:09:31.587Z,2.73
2018-05-06T02:13:34.193Z,3.10
2018-05-06T02:17:37.602Z,3.30
2018-05-06T02:21:41.011Z,2.73
2018-05-06T02:25:44.420Z,3.20
2018-05-06T02:29:47.819Z,3.57
2018-05-06T02:33:51.244Z,2.80
2018-05-06T02:37:53.882Z,3.03
2018-05-06T02:41:56.530Z,2.97
2018-05-06T02:45:59.171Z,2.73
2018-05-06T02:50:01.819Z,2.90
2018-05-06T02:54:04.423Z,2.80
2018-05-06T02:58:07.061Z,3.10
2018-05-06T03:02:10.467Z,3.13
2018-05-06T03:06:13.872Z,3.50
2018-05-06T03:10:17.285Z,3.80
2018-05-06T03:14:20.645Z,3.20
2018-05-06T03:18:23.396Z,2.97
2018-05-06T03:22:26.040Z,3.20
2018-05-06T03:26:28.736Z,4.07
2018-05-06T03:30:31.348Z,3.40
2018-05-06T03:34:34.815Z,3.57
2018-05-06T03:38:37.457Z,3.27
2018-05-06T03:42:40.101Z,3.17
2018-05-06T03:46:42.848Z,3.50
2018-05-06T03:50:45.503Z,3.20
2018-05-06T03:54:48.920Z,3.23
2018-05-06T03:59:03.505Z,3.40
2018-05-06T04:03:06.148Z,3.40
2018-05-06T04:07:09.663Z,3.13
2018-05-06T04:11:12.271Z,4.13
2018-05-06T04:15:15.674Z,3.90
2018-05-06T04:19:19.075Z,3.20
2018-05-06T04:23:22.488Z,3.90
2018-05-06T04:27:25.848Z,3.83
2018-05-06T04:31:28.561Z,3.60
2018-05-06T04:35:31.207Z,3.73
2018-05-06T04:39:33.905Z,3.23
2018-05-06T04:43:36.549Z,4.17
2018-05-06T04:47:39.917Z,3.53
2018-05-06T04:51:42.549Z,4.03
2018-05-06T04:55:45.189Z,3.13
2018-05-06T04:59:47.831Z,3.70
2018-05-06T05:03:50.492Z,3.70
2018-05-06T05:07:53.159Z,3.50
2018-05-06T05:11:55.806Z,3.60
2018-05-06T05:15:58.442Z,4.17
2018-05-06T05:20:01.087Z,3.30
2018-05-06T05:24:03.692Z,3.73
2018-05-06T05:28:06.327Z,3.00
2018-05-06T05:32:09.734Z,4.23
2018-05-06T05:36:13.199Z,3.53
2018-05-06T05:40:15.840Z,3.83
2018-05-06T05:44:19.212Z,3.30
2018-05-06T05:48:21.875Z,3.43
2018-05-06T05:52:24.512Z,3.60
2018-05-06T05:56:27.196Z,3.40
2018-05-06T06:00:30.608Z,3.53
2018-05-06T06:04:33.980Z,3.33
2018-05-06T06:08:36.624Z,3.33
2018-05-06T06:12:39.271Z,3.40
2018-05-06T06:16:41.926Z,2.93
2018-05-06T06:20:44.536Z,3.73
2018-05-06T06:24:47.173Z,3.50
2018-05-06T06:28:49.864Z,2.90
2018-05-06T06:32:52.607Z,3.00
2018-05-06T06:36:55.223Z,3.40
2018-05-06T06:40:58.593Z,3.00
2018-05-06T06:45:01.294Z,3.03
2018-05-06T06:49:03.944Z,2.73
2018-05-06T06:53:06.598Z,2.53
2018-05-06T06:57:10.019Z,2.97
2018-05-06T07:01:12.624Z,2.53
2018-05-06T07:05:15.271Z,3.00
2018-05-06T07:09:17.969Z,2.60
2018-05-06T07:13:21.388Z,2.40
2018-05-06T07:17:24.028Z,2.40
2018-05-06T07:21:26.645Z,2.33
2018-05-06T07:25:30.080Z,2.63
2018-05-06T07:29:32.824Z,2.53
2018-05-06T07:33:35.485Z,2.47
2018-05-06T07:37:38.186Z,2.90
2018-05-06T07:41:40.939Z,2.60
2018-05-06T07:45:43.609Z,2.70
2018-05-06T07:49:46.265Z,2.57
2018-05-06T07:53:48.977Z,2.93
2018-05-06T07:57:52.388Z,2.50
2018-05-06T08:01:55.819Z,2.60
2018-05-06T08:05:58.476Z,2.70
2018-05-06T08:10:01.907Z,3.37
2018-05-06T08:14:04.596Z,2.90
2018-05-06T08:18:07.325Z,2.67
2018-05-06T08:22:09.980Z,2.70
2018-05-06T08:26:12.672Z,2.83
2018-05-06T08:30:15.335Z,2.70
2018-05-06T08:34:18.772Z,2.73
2018-05-06T08:38:21.537Z,2.70
2018-05-06T08:42:24.212Z,2.47
2018-05-06T08:46:27.655Z,3.00
2018-05-06T08:50:30.344Z,2.43
2018-05-06T08:54:33.129Z,2.20
2018-05-06T08:58:35.768Z,2.17
2018-05-06T09:02:38.424Z,2.80
2018-05-06T09:06:41.103Z,2.73
2018-05-06T09:10:43.763Z,2.30
2018-05-06T09:14:47.659Z,1.90
2018-05-06T09:18:50.333Z,1.73
2018-05-06T09:22:53.805Z,2.30
2018-05-06T09:26:56.465Z,2.17
2018-05-06T09:30:59.879Z,2.17
2018-05-06T09:35:03.285Z,2.30
2018-05-06T09:39:06.692Z,2.30
2018-05-06T09:43:10.105Z,2.57
2018-05-06T09:47:12.742Z,2.53
2018-05-06T09:51:15.493Z,2.50
2018-05-06T09:55:18.155Z,2.40
2018-05-06T09:59:21.579Z,2.10
2018-05-06T10:03:24.243Z,1.67
2018-05-06T10:07:26.883Z,1.93
2018-05-06T10:11:29.520Z,2.10
2018-05-06T10:15:32.157Z,2.00
2018-05-06T10:19:34.759Z,1.70
2018-05-06T10:23:37.412Z,2.53
2018-05-06T10:27:40.056Z,1.90
2018-05-06T10:31:42.701Z,2.13
2018-05-06T10:35:45.342Z,1.70
2018-05-06T10:39:48.005Z,1.87
2018-05-06T10:43:51.404Z,1.90
2018-05-06T10:47:54.062Z,1.83
2018-05-06T10:51:56.718Z,2.43
2018-05-06T10:56:00.150Z,1.90
2018-05-06T11:00:02.771Z,2.27
2018-05-06T11:04:05.459Z,2.20
2018-05-06T11:08:08.225Z,2.20
2018-05-06T11:12:10.873Z,2.20
2018-05-06T11:16:13.517Z,2.30
2018-05-06T11:20:16.124Z,2.03
2018-05-06T11:24:18.777Z,2.10
2018-05-06T11:28:21.424Z,2.07
2018-05-06T11:32:24.064Z,1.90
2018-05-06T11:36:26.704Z,1.90
2018-05-06T11:40:30.193Z,2.13
2018-05-06T11:44:32.839Z,2.20
2018-05-06T11:48:35.476Z,1.73
2018-05-06T11:52:38.125Z,1.60
2018-05-06T11:56:40.767Z,1.97
2018-05-06T12:00:43.366Z,1.80
2018-05-06T12:04:46.772Z,1.50
2018-05-06T12:08:50.231Z,1.40
2018-05-06T12:12:52.907Z,1.27
2018-05-06T12:16:55.543Z,1.37
2018-05-06T12:20:58.203Z,1.57
2018-05-06T12:25:00.844Z,1.33
2018-05-06T12:29:04.248Z,1.23
2018-05-06T12:33:07.660Z,1.30
2018-05-06T12:37:11.060Z,1.30
2018-05-06T12:41:14.489Z,1.73
2018-05-06T12:45:17.136Z,1.87
2018-05-06T12:49:19.781Z,1.50
2018-05-06T12:53:22.578Z,1.40
2018-05-06T12:57:25.628Z,1.67
2018-05-06T13:01:28.319Z,1.60
2018-05-06T13:05:31.727Z,1.60
2018-05-06T13:09:35.128Z,1.70
2018-05-06T13:13:38.537Z,1.57
2018-05-06T13:17:41.943Z,1.30
2018-05-06T13:21:45.359Z,1.57
2018-05-06T13:25:47.995Z,1.87
2018-05-06T13:29:50.748Z,1.57
2018-05-06T13:33:53.389Z,1.60
2018-05-06T13:37:56.025Z,1.50
2018-05-06T13:41:58.814Z,1.73
2018-05-06T13:46:01.432Z,1.53
2018-05-06T13:50:04.072Z,1.23
2018-05-06T13:54:06.740Z,1.30
2018-05-06T13:58:09.370Z,1.40
2018-05-06T14:02:12.077Z,1.43
2018-05-06T14:06:14.683Z,1.63
2018-05-06T14:10:17.330Z,1.20
2018-05-06T14:14:19.965Z,1.30
2018-05-06T14:18:22.607Z,1.30
2018-05-06T14:22:25.248Z,1.80
2018-05-06T14:26:27.852Z,1.70
2018-05-06T14:30:30.492Z,1.53
2018-05-06T14:34:33.130Z,1.70
2018-05-06T14:38:35.772Z,1.50
2018-05-06T14:42:38.428Z,1.40
2018-05-06T14:46:52.786Z,1.43
2018-05-06T14:50:56.205Z,1.53
2018-05-06T14:54:58.839Z,1.50
2018-05-06T14:59:02.702Z,1.80
2018-05-06T15:03:05.359Z,1.20
2018-05-06T15:07:07.959Z,1.50
2018-05-06T15:11:11.370Z,1.60
2018-05-06T15:15:14.008Z,1.47
2018-05-06T15:19:16.655Z,1.40
2018-05-06T15:23:20.135Z,1.43
2018-05-06T15:27:22.735Z,1.57
2018-05-06T15:31:26.139Z,1.63
2018-05-06T15:35:28.781Z,1.40
2018-05-06T15:39:31.456Z,1.70
2018-05-06T15:43:34.163Z,1.50
2018-05-06T15:47:36.762Z,1.40
2018-05-06T15:51:39.482Z,1.33
2018-05-06T15:55:42.189Z,1.43
2018-05-06T15:59:45.394Z,1.60
2018-05-06T16:03:59.948Z,1.57
2018-05-06T16:08:03.316Z,1.60
2018-05-06T16:12:05.988Z,1.43
2018-05-06T16:16:08.624Z,1.70
2018-05-06T16:20:11.263Z,1.30
2018-05-06T16:24:13.902Z,1.47
2018-05-06T16:28:16.512Z,1.53
2018-05-06T16:32:19.215Z,1.40
2018-05-06T16:36:21.865Z,1.23
2018-05-06T16:40:24.565Z,1.47
2018-05-06T16:44:28.017Z,1.77
2018-05-06T16:48:30.620Z,1.13
2018-05-06T16:52:33.262Z,1.43
2018-05-06T16:56:35.910Z,1.27
2018-05-06T17:00:38.556Z,1.50
2018-05-06T17:04:41.207Z,1.30
2018-05-06T17:08:44.578Z,1.40
2018-05-06T17:12:47.268Z,1.20
2018-05-06T17:16:49.887Z,1.50
2018-05-06T17:20:52.529Z,1.30
2018-05-06T17:24:55.164Z,1.30
2018-05-06T17:28:58.543Z,1.40
2018-05-06T17:33:01.186Z,1.53
2018-05-06T17:37:03.853Z,1.10
2018-05-06T17:41:07.275Z,1.20
2018-05-06T17:45:09.963Z,1.40
2018-05-06T17:49:12.731Z,1.60
2018-05-06T17:53:16.156Z,1.10
2018-05-06T17:57:19.588Z,1.40
2018-05-06T18:01:22.258Z,1.60
2018-05-06T18:05:24.916Z,1.30
2018-05-06T18:09:27.544Z,1.30
2018-05-06T18:13:30.234Z,1.27
2018-05-06T18:17:32.927Z,1.40
2018-05-06T18:21:35.571Z,2.00
2018-05-06T18:25:38.226Z,1.90
2018-05-06T18:29:40.836Z,1.60
2018-05-06T18:33:43.488Z,1.43
2018-05-06T18:37:46.129Z,1.37
2018-05-06T18:41:49.537Z,1.30
2018-05-06T18:45:52.949Z,1.53
2018-05-06T18:49:56.320Z,1.60
2018-05-06T18:53:58.968Z,1.60
2018-05-06T18:58:01.624Z,1.47
2018-05-06T19:02:05.036Z,1.60
2018-05-06T19:06:08.455Z,1.70
2018-05-06T19:10:11.827Z,1.70
2018-05-06T19:14:14.472Z,1.80
2018-05-06T19:18:17.111Z,1.20
2018-05-06T19:22:19.760Z,1.73
2018-05-06T19:26:22.453Z,1.70
2018-05-06T19:30:25.051Z,2.17
2018-05-06T19:34:27.696Z,1.50
2018-05-06T19:38:30.349Z,1.70
2018-05-06T19:42:33.076Z,1.80
2018-05-06T19:46:35.661Z,1.77
2018-05-06T19:50:38.261Z,1.60
2018-05-06T19:54:40.901Z,1.67
2018-05-06T19:58:43.548Z,1.70
2018-05-06T20:02:46.194Z,1.60
2018-05-06T20:06:49.596Z,1.90
2018-05-06T20:10:52.245Z,1.73
2018-05-06T20:14:55.692Z,2.20
2018-05-06T20:18:59.095Z,1.50
2018-05-06T20:23:01.748Z,1.83
2018-05-06T20:27:04.393Z,1.97
2018-05-06T20:31:07.759Z,1.87
2018-05-06T20:35:10.405Z,1.60
2018-05-06T20:39:13.050Z,2.00
2018-05-06T20:43:15.700Z,1.70
2018-05-06T20:47:18.373Z,1.50
2018-05-06T20:51:20.982Z,1.60
2018-05-06T20:55:23.698Z,1.70
2018-05-06T20:59:26.312Z,2.00
2018-05-06T21:03:29.735Z,1.90
2018-05-06T21:07:32.336Z,1.60
2018-05-06T21:11:34.979Z,2.03
2018-05-06T21:15:37.619Z,2.40
2018-05-06T21:19:40.293Z,2.07
2018-05-06T21:23:42.940Z,2.00
2018-05-06T21:27:45.640Z,1.67
2018-05-06T21:31:48.208Z,1.90
2018-05-06T21:35:50.844Z,1.70
2018-05-06T21:39:53.483Z,2.17
2018-05-06T21:43:56.123Z,1.83
2018-05-06T21:47:58.723Z,2.50
2018-05-06T21:52:01.368Z,2.60
2018-05-06T21:56:04.785Z,2.33
2018-05-06T22:00:08.248Z,2.33
2018-05-06T22:04:10.918Z,2.20
2018-05-06T22:08:13.567Z,2.17
2018-05-06T22:12:16.986Z,2.40
2018-05-06T22:16:19.696Z,2.40
2018-05-06T22:20:22.335Z,2.50
2018-05-06T22:24:24.939Z,2.07
2018-05-06T22:28:27.580Z,2.43
2018-05-06T22:32:30.280Z,2.30
2018-05-06T22:36:32.924Z,2.27
2018-05-06T22:40:35.559Z,2.30
2018-05-06T22:44:38.165Z,2.23
2018-05-06T22:48:41.575Z,2.57
2018-05-06T22:56:53.940Z,2.73
2018-05-06T23:00:56.579Z,2.50
2018-05-06T23:04:59.232Z,2.80
2018-05-06T23:09:01.873Z,2.33
2018-05-06T23:13:04.512Z,2.50
2018-05-06T23:17:07.173Z,2.40
2018-05-06T23:21:10.540Z,2.83
2018-05-06T23:25:13.255Z,2.40
2018-05-06T23:29:16.680Z,2.53
2018-05-06T23:33:19.328Z,2.47
2018-05-06T23:37:21.974Z,3.00
2018-05-06T23:41:24.652Z,2.77
2018-05-06T23:45:27.304Z,3.00
2018-05-06T23:49:30.017Z,2.60
2018-05-06T23:53:32.771Z,2.63
2018-05-06T23:57:35.509Z,3.47
